WICT2: Wichita River At Wichita Falls, TX

                                SHEF ID:       WICT2     Wichita Rv at Wichita Falls, TX
STATION TYPE:
Regulating: Stage = 18.50, Flow = 5482

PRECIP STAGE RIV-FLOW WTR-TEMP CONDUCT BAT-LOAD
in ft cfs F umho/cm volt
Ccp-Rev Ccp-Rev Ccp-Rev Ccp-Rev Ccp-Rev Ccp-Rev
(America/Chicago)
03/22 00:00 ---- 2.07 17 72.09 7201 12.04
03/22 01:00 ---- 2.07 17 71.49 7087 12.01
03/22 02:00 ---- 2.09 18 71.08 7071 12.01
03/22 03:00 ---- 2.07 17 70.65 7058 11.98
03/22 04:00 ---- 2.08 18 70.16 7050 11.98
03/22 05:00 ---- 2.08 18 69.75 7062 11.96
03/22 06:00 ---- 2.08 18 69.35 7058 11.91
03/22 07:00 ---- 2.08 18 68.97 7062 11.94
03/22 08:00 ---- 2.07 17 68.58 7038 11.94
03/22 09:00 ---- 2.07 17 68.20 7051 11.98
03/22 10:00 ---- 2.06 16 68.07 7029 12.67
03/22 11:00 ---- 2.04 15 68.49 7019 12.92
03/22 12:00 ---- 2.05 16 69.55 7059 12.65
03/22 13:00 ---- 2.05 16 70.59 7067 12.49
03/22 14:00 ---- 2.05 16 71.76 7106 12.47
03/22 15:00 ---- 2.04 15 73.31 7127 12.43
03/22 16:00 ---- 2.05 16 74.46 7151 12.40
03/22 17:00 ---- 2.06 16 75.16 7120 12.28
03/22 18:00 ---- 2.07 17 75.52 7094 12.19
03/22 19:00 ---- 2.07 17 74.95 7079 12.16
03/22 20:00 ---- 2.07 17 74.03 7058 12.11
03/22 21:00 ---- 2.07 17 72.82 7063 12.09
03/22 22:00 ---- 2.07 17 71.67 7032 12.07
03/22 23:00 ---- 2.05 16 70.48 6995 12.05
Data processed at Mon 23Mar2026 04:58 GMT

NOTICE: If you are parsing this page

Please convert to using our Data API. Starting early 2026 we will be migrating to: https://water.usace.army.mil with modern pages rendered in JavaScript. When this migration completes you will no longer be able to scrape this page! CWMSDataAPI (CDA)

Timeseries IDs (TSIDs)

TSIDs used from left to right in the data table
WFAL.Precip-Inc.Total.1Hour.1Hour.Ccp-Rev
WFAL.Stage.Inst.1Hour.0.Ccp-Rev
WFAL.Flow.Inst.1Hour.0.Ccp-Rev
WFAL.Temp-Water.Inst.1Hour.0.Ccp-Rev
WFAL.Cond-Water.Inst.1Hour.0.Ccp-Rev
WFAL.Volt-Battery Load.Inst.1Hour.0.Ccp-Rev

                            

All information presented herein is the property of the government of the United States of America and may be revised or deleted at any time without prior notice. Dissemination of this information without the expressed written consent of the Public Affairs Office, Tulsa District U.S. Army Corps of Engineers is strictly prohibited. These data are gathered electronically and, as presented, have NOT undergone any form of quality control. These data are NOT guaranteed to be valid or correct.